createdAt,value
2019-05-11T00:00:12.221Z,26.12
2019-05-11T00:02:38.912Z,27.25
2019-05-11T00:05:05.911Z,26.48
2019-05-11T00:07:32.804Z,26.10
2019-05-11T00:09:59.599Z,25.77
2019-05-11T00:12:26.373Z,25.02
2019-05-11T00:14:53.048Z,26.05
2019-05-11T00:17:19.866Z,27.77
2019-05-11T00:19:46.549Z,27.82
2019-05-11T00:22:13.330Z,25.02
2019-05-11T00:24:40.214Z,25.20
2019-05-11T00:29:38.880Z,25.02
2019-05-11T00:32:05.671Z,27.10
2019-05-11T00:34:32.476Z,25.48
2019-05-11T00:36:59.044Z,28.57
2019-05-11T00:39:25.769Z,27.70
2019-05-11T00:41:52.359Z,26.23
2019-05-11T00:44:19.145Z,28.57
2019-05-11T00:46:46.018Z,27.25
2019-05-11T00:49:12.872Z,27.87
2019-05-11T00:51:39.655Z,27.70
2019-05-11T00:54:06.460Z,27.73
2019-05-11T00:56:33.335Z,28.83
2019-05-11T00:59:00.126Z,29.82
2019-05-11T01:01:26.933Z,28.07
2019-05-11T01:03:53.727Z,29.65
2019-05-11T01:06:20.524Z,29.18
2019-05-11T01:08:47.270Z,27.58
2019-05-11T01:11:14.036Z,30.80
2019-05-11T01:13:40.795Z,26.33
2019-05-11T01:16:07.473Z,27.13
2019-05-11T01:18:34.184Z,25.75
2019-05-11T01:21:00.857Z,26.55
2019-05-11T01:23:27.819Z,29.82
2019-05-11T01:25:54.585Z,26.62
2019-05-11T01:28:21.294Z,27.10
2019-05-11T01:30:48.056Z,27.82
2019-05-11T01:33:14.870Z,27.55
2019-05-11T01:35:41.630Z,29.18
2019-05-11T01:38:08.395Z,28.42
2019-05-11T01:40:35.104Z,28.73
2019-05-11T01:43:01.887Z,26.52
2019-05-11T01:45:28.567Z,25.80
2019-05-11T01:47:55.291Z,27.25
2019-05-11T01:50:21.983Z,26.85
2019-05-11T01:52:48.646Z,27.52
2019-05-11T01:55:15.336Z,27.13
2019-05-11T01:57:41.994Z,27.80
2019-05-11T02:00:08.978Z,28.02
2019-05-11T02:02:35.655Z,26.77
2019-05-11T02:05:20.468Z,25.77
2019-05-11T02:07:48.775Z,23.57
2019-05-11T02:10:15.550Z,23.87
2019-05-11T02:12:42.154Z,24.80
2019-05-11T02:15:08.851Z,25.15
2019-05-11T02:17:35.559Z,26.23
2019-05-11T02:20:02.349Z,25.90
2019-05-11T02:22:29.156Z,26.27
2019-05-11T02:24:55.845Z,24.45
2019-05-11T02:27:22.676Z,25.43
2019-05-11T02:29:49.610Z,24.15
2019-05-11T02:32:16.280Z,26.05
2019-05-11T02:34:42.966Z,24.15
2019-05-11T02:37:09.713Z,25.62
2019-05-11T02:39:36.283Z,28.15
2019-05-11T02:42:03.147Z,27.82
2019-05-11T02:44:29.966Z,27.22
2019-05-11T02:46:56.694Z,27.45
2019-05-11T02:49:27.760Z,25.12
2019-05-11T02:51:52.244Z,26.07
2019-05-11T02:54:19.130Z,26.70
2019-05-11T02:56:45.797Z,24.57
2019-05-11T02:59:12.477Z,25.45
2019-05-11T03:01:39.159Z,24.07
2019-05-11T03:04:05.935Z,26.50
2019-05-11T03:06:32.702Z,28.20
2019-05-11T03:08:59.391Z,25.70
2019-05-11T03:11:25.977Z,26.33
2019-05-11T03:13:52.624Z,27.52
2019-05-11T03:16:19.300Z,26.68
2019-05-11T03:18:46.073Z,27.07
2019-05-11T03:21:12.650Z,26.90
2019-05-11T03:23:39.214Z,26.55
2019-05-11T03:26:06.286Z,26.25
2019-05-11T03:28:33.142Z,26.48
2019-05-11T03:31:02.123Z,28.23
2019-05-11T03:33:29.117Z,27.55
2019-05-11T03:35:55.894Z,30.48
2019-05-11T03:38:22.454Z,29.92
2019-05-11T03:40:49.436Z,28.52
2019-05-11T03:43:16.100Z,27.90
2019-05-11T03:45:43.089Z,28.87
2019-05-11T03:48:10.141Z,29.12
2019-05-11T03:50:36.988Z,27.90
2019-05-11T03:53:03.854Z,27.37
2019-05-11T03:55:30.636Z,27.85
2019-05-11T03:57:57.222Z,27.07
2019-05-11T04:00:23.985Z,29.72
2019-05-11T04:02:50.599Z,28.17
2019-05-11T04:05:17.384Z,28.77
2019-05-11T04:07:44.195Z,30.62
2019-05-11T04:10:10.890Z,28.17
2019-05-11T04:12:37.642Z,28.73
2019-05-11T04:15:04.905Z,28.15
2019-05-11T04:17:31.575Z,26.77
2019-05-11T04:19:58.260Z,28.52
2019-05-11T04:22:24.955Z,29.20
2019-05-11T04:24:51.948Z,32.13
2019-05-11T04:27:19.611Z,28.55
2019-05-11T04:29:46.736Z,24.75
2019-05-11T04:32:13.422Z,24.87
2019-05-11T04:34:40.143Z,24.37
2019-05-11T04:37:06.825Z,24.35
2019-05-11T04:39:33.631Z,24.25
2019-05-11T04:42:00.234Z,26.10
2019-05-11T04:44:26.912Z,24.80
2019-05-11T04:46:53.599Z,25.15
2019-05-11T04:49:20.285Z,27.17
2019-05-11T04:51:47.068Z,27.60
2019-05-11T04:54:13.738Z,26.48
2019-05-11T04:56:40.467Z,27.55
2019-05-11T04:59:07.196Z,26.77
2019-05-11T05:01:35.457Z,25.25
2019-05-11T05:04:13.294Z,24.75
2019-05-11T05:06:30.997Z,25.27
2019-05-11T05:08:58.265Z,27.17
2019-05-11T05:11:30.608Z,26.10
2019-05-11T05:13:54.638Z,26.50
2019-05-11T05:16:21.331Z,26.65
2019-05-11T05:18:47.999Z,28.67
2019-05-11T05:21:14.783Z,31.37
2019-05-11T05:23:41.554Z,28.83
2019-05-11T05:26:08.167Z,28.10
2019-05-11T05:28:34.927Z,29.85
2019-05-11T05:31:01.716Z,29.35
2019-05-11T05:33:28.394Z,28.55
2019-05-11T05:35:55.077Z,28.87
2019-05-11T05:38:21.654Z,30.23
2019-05-11T05:40:48.368Z,30.62
2019-05-11T05:43:26.020Z,30.52
2019-05-11T05:45:43.527Z,29.02
2019-05-11T05:48:10.224Z,29.70
2019-05-11T05:50:36.908Z,31.48
2019-05-11T05:53:03.740Z,27.77
2019-05-11T05:55:30.346Z,30.30
2019-05-11T05:57:57.199Z,27.20
2019-05-11T06:00:23.980Z,29.72
2019-05-11T06:02:50.813Z,32.35
2019-05-11T06:05:19.784Z,28.30
2019-05-11T06:07:47.272Z,28.47
2019-05-11T06:10:14.189Z,27.05
2019-05-11T06:12:40.890Z,28.07
2019-05-11T06:15:08.367Z,29.70
2019-05-11T06:17:34.966Z,27.65
2019-05-11T06:20:02.392Z,27.20
2019-05-11T06:22:30.889Z,28.38
2019-05-11T06:24:57.461Z,29.42
2019-05-11T06:27:24.148Z,28.12
2019-05-11T06:29:50.844Z,28.45
2019-05-11T06:32:17.527Z,29.15
2019-05-11T06:34:44.309Z,31.37
2019-05-11T06:37:10.987Z,29.10
2019-05-11T06:39:37.664Z,28.90
2019-05-11T06:42:04.474Z,30.48
2019-05-11T06:44:31.150Z,29.02
2019-05-11T06:46:58.211Z,30.23
2019-05-11T06:49:24.889Z,30.62
2019-05-11T06:51:51.480Z,30.68
2019-05-11T06:54:18.258Z,30.48
2019-05-11T06:56:44.855Z,32.38
2019-05-11T06:59:11.854Z,31.20
2019-05-11T07:01:38.577Z,28.55
2019-05-11T07:04:05.345Z,29.20
2019-05-11T07:06:33.123Z,29.63
2019-05-11T07:08:59.684Z,29.07
2019-05-11T07:11:26.337Z,30.40
2019-05-11T07:13:52.978Z,28.75
2019-05-11T07:16:19.734Z,27.52
2019-05-11T07:18:46.444Z,28.35
2019-05-11T07:21:13.110Z,28.00
2019-05-11T07:23:39.790Z,26.25
2019-05-11T07:26:06.579Z,28.27
2019-05-11T07:28:33.279Z,25.17
2019-05-11T07:31:00.008Z,24.60
2019-05-11T07:33:28.709Z,22.45
2019-05-11T07:35:55.269Z,23.57
2019-05-11T07:38:21.982Z,23.85
2019-05-11T07:40:48.774Z,23.77
2019-05-11T07:43:15.589Z,19.62
2019-05-11T07:45:42.253Z,21.87
2019-05-11T07:48:08.866Z,22.77
2019-05-11T07:50:35.432Z,21.85
2019-05-11T07:53:02.235Z,21.50
2019-05-11T07:55:28.799Z,22.00
2019-05-11T07:57:55.604Z,21.27
2019-05-11T08:00:22.367Z,21.55
2019-05-11T08:02:49.156Z,22.22
2019-05-11T08:05:17.998Z,21.02
2019-05-11T08:07:48.144Z,19.77
2019-05-11T08:10:18.563Z,19.52
2019-05-11T08:12:45.301Z,21.33
2019-05-11T08:15:13.801Z,20.45
2019-05-11T08:17:40.765Z,19.32
2019-05-11T08:20:08.536Z,19.48
2019-05-11T08:22:55.058Z,18.23
2019-05-11T08:25:21.731Z,18.50
2019-05-11T08:27:48.711Z,19.95
2019-05-11T08:30:15.985Z,21.35
2019-05-11T08:32:44.177Z,22.80
2019-05-11T08:35:11.290Z,20.27
2019-05-11T08:37:38.773Z,18.23
2019-05-11T08:40:28.836Z,18.85
2019-05-11T08:43:17.814Z,19.50
2019-05-11T08:45:44.130Z,19.90
2019-05-11T08:48:10.922Z,18.92
2019-05-11T08:50:38.251Z,18.55
2019-05-11T08:53:08.438Z,19.60
2019-05-11T08:55:34.997Z,18.48
2019-05-11T08:58:01.689Z,19.73
2019-05-11T09:00:28.595Z,20.00
2019-05-11T09:02:58.035Z,19.37
2019-05-11T09:05:24.042Z,18.67
2019-05-11T09:07:51.061Z,20.17
2019-05-11T09:10:18.635Z,19.82
2019-05-11T09:12:45.644Z,20.43
2019-05-11T09:15:12.602Z,19.77
2019-05-11T09:17:39.162Z,19.17
2019-05-11T09:20:08.720Z,16.95
2019-05-11T09:22:35.236Z,17.12
2019-05-11T09:25:02.045Z,17.12
2019-05-11T09:27:28.815Z,14.50
2019-05-11T09:29:55.514Z,14.05
2019-05-11T09:32:22.310Z,14.13
2019-05-11T09:34:48.879Z,12.95
2019-05-11T09:37:18.384Z,12.70
2019-05-11T09:39:47.728Z,11.53
2019-05-11T09:42:13.766Z,11.75
2019-05-11T09:44:40.460Z,10.40
2019-05-11T09:47:08.312Z,9.05
2019-05-11T09:49:47.163Z,8.60
2019-05-11T09:52:03.982Z,7.97
2019-05-11T09:54:30.762Z,8.58
2019-05-11T09:56:57.987Z,7.35
2019-05-11T09:59:28.015Z,6.92
2019-05-11T10:01:55.887Z,6.95
2019-05-11T10:04:28.808Z,6.10
2019-05-11T10:06:58.379Z,6.15
2019-05-11T10:09:24.885Z,5.47
2019-05-11T10:11:51.818Z,6.72
2019-05-11T10:14:18.886Z,5.53
2019-05-11T10:16:45.612Z,5.08
2019-05-11T10:19:12.394Z,6.25
2019-05-11T10:21:39.091Z,5.60
2019-05-11T10:24:08.323Z,5.20
2019-05-11T10:26:34.522Z,5.08
2019-05-11T10:29:01.283Z,6.92
2019-05-11T10:31:31.116Z,5.72
2019-05-11T10:33:58.112Z,5.17
2019-05-11T10:36:24.978Z,5.20
2019-05-11T10:38:51.787Z,5.33
2019-05-11T10:41:18.597Z,4.92
2019-05-11T10:43:45.372Z,5.45
2019-05-11T10:46:19.607Z,5.20
2019-05-11T10:48:40.525Z,5.08
2019-05-11T10:51:08.241Z,4.67
2019-05-11T10:53:35.353Z,4.60
2019-05-11T10:56:02.141Z,4.58
2019-05-11T10:58:28.836Z,4.60
2019-05-11T11:00:58.073Z,4.03
2019-05-11T11:03:24.385Z,4.67
2019-05-11T11:05:51.112Z,4.53
2019-05-11T11:08:18.516Z,4.60
2019-05-11T11:10:45.642Z,4.80
2019-05-11T11:13:12.412Z,5.50
2019-05-11T11:15:39.247Z,5.35
2019-05-11T11:18:08.394Z,5.05
2019-05-11T11:20:34.592Z,4.90
2019-05-11T11:23:01.310Z,5.15
2019-05-11T11:25:28.498Z,5.40
2019-05-11T11:27:57.708Z,5.30
2019-05-11T11:30:24.193Z,5.83
2019-05-11T11:32:50.860Z,5.15
2019-05-11T11:35:18.766Z,5.92
2019-05-11T11:37:47.727Z,5.45
2019-05-11T11:40:14.470Z,5.22
2019-05-11T11:42:41.413Z,5.83
2019-05-11T11:45:08.792Z,5.87
2019-05-11T11:47:35.580Z,5.90
2019-05-11T11:50:02.427Z,5.62
2019-05-11T11:52:28.983Z,7.72
2019-05-11T11:54:55.773Z,6.80
2019-05-11T11:57:22.566Z,6.28
2019-05-11T11:59:49.367Z,6.60
2019-05-11T12:02:16.052Z,6.60
2019-05-11T12:04:42.794Z,7.47
2019-05-11T12:07:09.474Z,5.92
2019-05-11T12:09:37.774Z,5.58
2019-05-11T12:12:04.708Z,7.33
2019-05-11T12:14:31.291Z,7.70
2019-05-11T12:17:07.482Z,7.75
2019-05-11T12:19:27.875Z,7.15
2019-05-11T12:21:54.917Z,9.25
2019-05-11T12:24:21.782Z,8.28
2019-05-11T12:26:48.710Z,7.75
2019-05-11T12:29:15.395Z,7.62
2019-05-11T12:31:42.184Z,9.15
2019-05-11T12:34:08.957Z,8.78
2019-05-11T12:36:35.611Z,8.88
2019-05-11T12:39:04.425Z,11.33
2019-05-11T12:41:31.325Z,10.00
2019-05-11T12:43:58.089Z,8.83
2019-05-11T12:46:24.864Z,9.63
2019-05-11T12:48:51.625Z,10.03
2019-05-11T12:51:18.763Z,9.53
2019-05-11T12:53:47.549Z,9.48
2019-05-11T12:56:14.087Z,9.20
2019-05-11T12:58:40.623Z,9.35
2019-05-11T13:01:08.976Z,9.75
2019-05-11T13:03:38.401Z,8.05
2019-05-11T13:06:04.598Z,8.05
2019-05-11T13:08:31.416Z,8.78
2019-05-11T13:10:58.512Z,7.53
2019-05-11T13:13:25.409Z,9.03
2019-05-11T13:15:52.079Z,9.13
2019-05-11T13:18:18.779Z,7.97
2019-05-11T13:20:45.420Z,8.18
2019-05-11T13:23:12.112Z,8.63
2019-05-11T13:25:39.034Z,7.03
2019-05-11T13:28:05.866Z,6.65
2019-05-11T13:30:32.525Z,8.43
2019-05-11T13:32:59.202Z,8.35
2019-05-11T13:35:28.303Z,8.23
2019-05-11T13:37:54.453Z,7.20
2019-05-11T13:40:21.140Z,6.75
2019-05-11T13:42:48.983Z,7.10
2019-05-11T13:45:17.739Z,7.10
2019-05-11T13:47:52.688Z,7.67
2019-05-11T13:50:13.621Z,7.50
2019-05-11T13:52:40.402Z,7.50
2019-05-11T13:55:07.860Z,8.03
2019-05-11T13:57:37.803Z,6.67
2019-05-11T14:02:54.638Z,8.03
2019-05-11T14:05:21.487Z,8.10
2019-05-11T14:07:48.394Z,7.72
2019-05-11T14:10:15.325Z,7.83
2019-05-11T14:12:42.513Z,7.20
2019-05-11T14:15:09.162Z,8.83
2019-05-11T14:17:37.861Z,7.40
2019-05-11T14:20:04.814Z,8.48
2019-05-11T14:22:31.497Z,6.67
2019-05-11T14:24:58.734Z,7.25
2019-05-11T14:27:25.334Z,7.83
2019-05-11T14:29:52.003Z,7.67
2019-05-11T14:32:18.762Z,7.17
2019-05-11T14:34:45.341Z,7.47
2019-05-11T14:37:12.142Z,7.58
2019-05-11T14:39:38.721Z,6.60
2019-05-11T14:42:07.534Z,7.12
2019-05-11T14:44:34.017Z,6.17
2019-05-11T14:47:00.570Z,7.08
2019-05-11T14:49:27.702Z,5.60
2019-05-11T14:52:14.167Z,6.08
2019-05-11T14:54:41.550Z,5.00
2019-05-11T14:57:08.331Z,5.72
2019-05-11T14:59:35.098Z,5.92
2019-05-11T15:02:11.532Z,7.05
2019-05-11T15:04:38.271Z,6.37
2019-05-11T15:07:04.932Z,5.58
2019-05-11T15:09:31.664Z,6.30
2019-05-11T15:11:58.329Z,7.10
2019-05-11T15:14:25.014Z,6.33
2019-05-11T15:16:51.675Z,7.30
2019-05-11T15:19:18.635Z,6.40
2019-05-11T15:21:47.621Z,6.12
2019-05-11T15:24:14.266Z,6.60
2019-05-11T15:26:40.930Z,5.92
2019-05-11T15:29:08.297Z,5.62
2019-05-11T15:31:35.177Z,6.22
2019-05-11T15:34:01.875Z,5.70
2019-05-11T15:36:28.829Z,5.92
2019-05-11T15:38:55.403Z,5.55
2019-05-11T15:41:21.974Z,5.28
2019-05-11T15:43:48.751Z,4.90
2019-05-11T15:46:19.561Z,5.25
2019-05-11T15:48:58.478Z,6.72
2019-05-11T15:51:13.328Z,6.10
2019-05-11T15:53:39.900Z,6.28
2019-05-11T15:56:08.560Z,6.20
2019-05-11T15:58:35.173Z,7.25
2019-05-11T16:01:01.994Z,6.85
2019-05-11T16:03:28.665Z,6.33
2019-05-11T16:05:55.332Z,6.53
2019-05-11T16:08:21.905Z,6.78
2019-05-11T16:10:49.010Z,7.10
2019-05-11T16:13:17.903Z,6.92
2019-05-11T16:15:44.514Z,5.80
2019-05-11T16:18:11.161Z,6.22
2019-05-11T16:20:37.839Z,5.95
2019-05-11T16:23:04.512Z,5.62
2019-05-11T16:25:31.333Z,6.45
2019-05-11T16:27:57.978Z,5.58
2019-05-11T16:30:25.054Z,6.10
2019-05-11T16:32:51.615Z,5.53
2019-05-11T16:35:18.528Z,6.80
2019-05-11T16:37:45.308Z,6.78
2019-05-11T16:40:12.344Z,6.92
2019-05-11T16:42:39.126Z,5.55
2019-05-11T16:45:08.513Z,7.15
2019-05-11T16:47:35.188Z,5.83
2019-05-11T16:50:01.955Z,6.58
2019-05-11T16:52:28.833Z,6.97
2019-05-11T16:54:55.397Z,6.47
2019-05-11T16:57:22.176Z,6.35
2019-05-11T16:59:48.852Z,6.17
2019-05-11T17:02:15.637Z,5.85
2019-05-11T17:04:42.259Z,5.72
2019-05-11T17:07:08.986Z,5.42
2019-05-11T17:09:37.806Z,5.45
2019-05-11T17:12:04.931Z,5.92
2019-05-11T17:14:31.619Z,4.80
2019-05-11T17:16:58.651Z,5.00
2019-05-11T17:19:41.851Z,4.58
2019-05-11T17:21:54.370Z,4.95
2019-05-11T17:24:20.954Z,4.72
2019-05-11T17:26:47.977Z,4.00
2019-05-11T17:29:14.687Z,4.12
2019-05-11T17:31:41.574Z,3.80
2019-05-11T17:34:09.036Z,2.87
2019-05-11T17:36:36.227Z,3.20
2019-05-11T17:39:06.358Z,3.85
2019-05-11T17:41:32.946Z,3.33
2019-05-11T17:43:59.512Z,3.15
2019-05-11T17:46:27.832Z,3.30
2019-05-11T17:48:54.725Z,2.95
2019-05-11T17:51:24.877Z,3.05
2019-05-11T17:53:49.989Z,3.42
2019-05-11T17:56:16.556Z,3.83
2019-05-11T17:58:43.143Z,3.45
2019-05-11T18:01:10.225Z,3.00
2019-05-11T18:03:38.457Z,3.98
2019-05-11T18:06:05.400Z,3.42
2019-05-11T18:08:31.969Z,3.83
2019-05-11T18:10:59.151Z,4.75
2019-05-11T18:13:28.124Z,4.97
2019-05-11T18:15:54.524Z,3.62
2019-05-11T18:18:24.028Z,4.25
2019-05-11T18:20:50.003Z,4.05
2019-05-11T18:23:17.584Z,5.00
2019-05-11T18:25:44.465Z,3.02
2019-05-11T18:28:14.146Z,4.15
2019-05-11T18:30:39.886Z,4.85
2019-05-11T18:33:08.295Z,3.92
2019-05-11T18:35:35.520Z,3.80
2019-05-11T18:38:02.296Z,3.80
2019-05-11T18:40:29.006Z,3.58
2019-05-11T18:42:57.867Z,3.95
2019-05-11T18:45:24.735Z,4.95
2019-05-11T18:47:51.300Z,3.10
2019-05-11T18:50:29.984Z,2.72
2019-05-11T18:52:49.025Z,3.87
2019-05-11T18:55:15.615Z,4.42
2019-05-11T18:57:42.693Z,4.65
2019-05-11T19:00:09.565Z,4.05
2019-05-11T19:02:38.410Z,4.37
2019-05-11T19:05:05.693Z,4.55
2019-05-11T19:07:32.567Z,5.40
2019-05-11T19:09:59.710Z,4.10
2019-05-11T19:12:27.890Z,3.87
2019-05-11T19:14:54.743Z,3.50
2019-05-11T19:17:23.640Z,2.70
2019-05-11T19:19:50.351Z,3.08
2019-05-11T19:22:18.313Z,2.98
2019-05-11T19:24:47.581Z,3.00
2019-05-11T19:27:14.500Z,2.77
2019-05-11T19:29:41.420Z,2.87
2019-05-11T19:32:11.144Z,2.55
2019-05-11T19:34:38.810Z,3.45
2019-05-11T19:37:05.713Z,3.60
2019-05-11T19:39:32.435Z,3.40
2019-05-11T19:41:59.041Z,3.42
2019-05-11T19:44:27.833Z,2.70
2019-05-11T19:46:54.212Z,2.75
2019-05-11T19:49:20.895Z,3.08
2019-05-11T19:51:48.660Z,3.55
2019-05-11T19:54:15.524Z,2.55
2019-05-11T19:56:42.109Z,3.12
2019-05-11T19:59:08.971Z,3.12
2019-05-11T20:01:35.742Z,3.22
2019-05-11T20:04:02.423Z,2.70
2019-05-11T20:06:29.059Z,3.60
2019-05-11T20:08:57.702Z,3.45
2019-05-11T20:11:24.310Z,2.67
2019-05-11T20:13:50.869Z,2.87
2019-05-11T20:16:18.737Z,2.87
2019-05-11T20:18:45.633Z,3.22
2019-05-11T20:21:19.253Z,3.15
2019-05-11T20:23:41.037Z,3.83
2019-05-11T20:26:08.878Z,3.08
2019-05-11T20:28:37.781Z,3.00
2019-05-11T20:31:04.399Z,3.02
2019-05-11T20:33:31.195Z,3.67
2019-05-11T20:35:58.229Z,3.35
2019-05-11T20:38:25.030Z,3.67
2019-05-11T20:40:51.604Z,3.17
2019-05-11T20:43:18.729Z,3.22
2019-05-11T20:45:45.395Z,3.40
2019-05-11T20:48:12.073Z,3.58
2019-05-11T20:50:38.637Z,3.52
2019-05-11T20:53:05.404Z,3.35
2019-05-11T20:55:32.162Z,3.45
2019-05-11T20:57:58.866Z,2.92
2019-05-11T21:00:27.781Z,3.75
2019-05-11T21:02:54.335Z,3.65
2019-05-11T21:05:21.023Z,3.27
2019-05-11T21:07:47.683Z,4.10
2019-05-11T21:10:14.439Z,2.95
2019-05-11T21:12:41.167Z,3.45
2019-05-11T21:15:08.670Z,3.47
2019-05-11T21:17:35.369Z,3.45
2019-05-11T21:20:02.291Z,3.65
2019-05-11T21:22:29.090Z,3.22
2019-05-11T21:24:58.078Z,3.58
2019-05-11T21:27:24.140Z,4.55
2019-05-11T21:29:50.716Z,3.35
2019-05-11T21:32:17.999Z,3.70
2019-05-11T21:34:44.871Z,3.42
2019-05-11T21:37:11.575Z,3.92
2019-05-11T21:39:38.283Z,3.35
2019-05-11T21:42:07.585Z,4.00
2019-05-11T21:44:34.070Z,3.80
2019-05-11T21:47:00.830Z,3.70
2019-05-11T21:49:27.472Z,3.60
2019-05-11T21:52:04.233Z,3.85
2019-05-11T21:54:22.828Z,3.40
2019-05-11T21:56:49.512Z,3.47
2019-05-11T21:59:18.262Z,3.33
2019-05-11T22:01:45.126Z,3.17
2019-05-11T22:04:11.932Z,4.08
2019-05-11T22:06:39.202Z,4.00
2019-05-11T22:09:08.233Z,3.22
2019-05-11T22:11:35.042Z,3.00
2019-05-11T22:14:01.936Z,3.50
2019-05-11T22:16:30.251Z,4.40
2019-05-11T22:18:57.968Z,3.33
2019-05-11T22:21:24.898Z,3.40
2019-05-11T22:23:51.775Z,3.80
2019-05-11T22:26:18.559Z,3.40
2019-05-11T22:28:47.632Z,3.90
2019-05-11T22:31:14.105Z,3.45
2019-05-11T22:33:40.791Z,3.27
2019-05-11T22:36:07.475Z,3.30
2019-05-11T22:38:34.049Z,4.45
2019-05-11T22:41:00.942Z,4.37
2019-05-11T22:43:28.545Z,3.58
2019-05-11T22:45:57.935Z,4.08
2019-05-11T22:48:24.304Z,3.72
2019-05-11T22:50:51.543Z,3.87
2019-05-11T22:53:18.834Z,3.67
2019-05-11T22:55:45.642Z,3.83
2019-05-11T22:58:12.342Z,3.65
2019-05-11T23:00:41.479Z,3.17
2019-05-11T23:03:10.976Z,4.20
2019-05-11T23:05:38.295Z,3.22
2019-05-11T23:08:07.531Z,3.65
2019-05-11T23:10:34.101Z,3.37
2019-05-11T23:13:01.355Z,4.03
2019-05-11T23:15:28.326Z,4.22
2019-05-11T23:17:55.147Z,4.15
2019-05-11T23:20:21.842Z,3.85
2019-05-11T23:22:57.814Z,3.90
2019-05-11T23:25:18.482Z,4.12
2019-05-11T23:27:45.404Z,3.95
2019-05-11T23:30:13.164Z,3.70
2019-05-11T23:32:39.923Z,4.05
2019-05-11T23:35:08.391Z,3.92
2019-05-11T23:37:35.395Z,4.00
2019-05-11T23:40:02.170Z,4.00
2019-05-11T23:42:30.832Z,3.92
2019-05-11T23:44:58.653Z,5.03
2019-05-11T23:47:25.478Z,4.15
2019-05-11T23:49:52.163Z,4.80
2019-05-11T23:52:18.848Z,4.05
2019-05-11T23:54:45.434Z,4.28
2019-05-11T23:57:12.113Z,4.28
2019-05-11T23:59:38.804Z,3.72
